メインページ
METAR-TAF:

METAR-TAF

空港 :

High Level, アルバータ州, カナダ

緯度: 58-37N, 経度: 117-10W, 海抜: 338m

現時点の気象観測

当レポートは30分前の22:00(UTC)に作成
南東の風 10kt、東/北東からの間で変化する
気温 28°C
湿度 27%
気圧 1004 hPa
視程: 12.9km
高度6000ftの千切れ雲あり

METAR: CYOJ 162200Z 13010KT 070V190 8SM BKN060 28/07 A2966 RMK FU2CU3 FU TCU ASOCTD SLP050 DENSITY ALT 3200FT

時間: 16:30 (22:30 UTC)

予報

当レポートは2時間12分前の20:18(UTC)に作成
予報は16日の 20時(UTC)から 17日の 07時(UTC)まで有効
の風 8kt
視程: 3.2km
高度4000ftの雲はほとんどない
16日の 20時(UTC)から 16日の 22時(UTC)まで一時的に
視程: 9.7km
16日の 2200時(UTC)から
の風 8kt
視程: 9.7km
高度6000ftの雲は散在している
16日の 22時(UTC)から 17日の 02時(UTC)まで一時的に
視程: 6.4km
高度6000ftの千切れ雲あり
近辺でにわか雨, 煙
確率 30%
16日の 22時(UTC)から 17日の 02時(UTC)まで
変向風 15kt、最大25ktの突風を伴う
視程: 3.2km
高度4000ftの千切れ雲あり, 積乱雲.
激しい雷雨, 雨, 煙
17日の 0200時(UTC)から
南/南東の風 5kt
視程: 9.7km
高度4000ftの雲は散在している
17日の 02時(UTC)から 17日の 07時(UTC)まで一時的に
視程: 3.2km

TAF: CYOJ 162018Z 1620/1707 18008KT 2SM FU FEW040 TEMPO 1620/1622 6SM FU FM162200 18008KT 6SM FU SCT060 TEMPO 1622/1702 4SM VCSH FU BKN060 PROB30 1622/1702 VRB15G25KT 2SM TSRA FU BKN040CB FM170200 15005KT 6SM FU SCT040 TEMPO 1702/1707 2SM FU RMK NXT FCST BY 170100Z

4,000以上の空港の気象観測と天気予報(METAR報とTAF報)

利用可能な観測所は地図上に黄色い丸と赤い丸で示す。

丸の上にカーソルを重ねると観測所名を参照できる。

次にクリックすると気象観測と天気予報を参照できる。

マップの切り替え:黒色「×」印の緑ボタンをクリックして拡大、「-」印の緑ボタンをクリックして縮小、緑色の三角印をクリックして隣りの地図に切り替え


METAR-TAF: